Milwaukee, Wisconsin
Traffic Map
Current Weather Conditions
Milwaukee, Wisconsin
Broken Clouds
Broken Clouds
71°
Feels Like: 71°
Wind Chill: 71° Ceiling: 24000
Heat Index: 71° Visibility: 10mi
Dew Point: 56° Wind: 17mph
Humidity: 59% Direction: 270° (W)
Pressure: 29.86in Gusts: 30mph
Raw Report DataKMKE 211652Z 27015G26KT 10SM SCT033 BKN240 22/13 A2986 RMK AO2 PK WND 29031/1631 SLP107 T02170133
Traffic Incident Summary
Active as of:
Severity:
Category:
InformationThere was an issue retrieving the traffic information for this location. Please try a different location or try again shortly.
Advertisements